sensor_id;sensor_type;location;lat;lon;timestamp;temperature;humidity
62476;DHT22;50739;45.670;11.936;2023-03-14T00:00:34;13.20;74.29
62476;DHT22;50739;45.670;11.936;2023-03-14T00:05:38;13.19;74.31
62476;DHT22;50739;45.670;11.936;2023-03-14T00:10:40;13.02;75.09
62476;DHT22;50739;45.670;11.936;2023-03-14T00:15:41;13.15;74.52
62476;DHT22;50739;45.670;11.936;2023-03-14T00:20:45;13.02;74.65
62476;DHT22;50739;45.670;11.936;2023-03-14T00:25:46;13.00;74.74
62476;DHT22;50739;45.670;11.936;2023-03-14T00:30:48;13.02;74.49
62476;DHT22;50739;45.670;11.936;2023-03-14T00:35:56;12.91;74.95
62476;DHT22;50739;45.670;11.936;2023-03-14T00:40:58;13.00;74.17
62476;DHT22;50739;45.670;11.936;2023-03-14T00:46:00;12.89;74.52
62476;DHT22;50739;45.670;11.936;2023-03-14T00:51:06;12.71;75.71
62476;DHT22;50739;45.670;11.936;2023-03-14T00:56:11;12.78;75.19
62476;DHT22;50739;45.670;11.936;2023-03-14T01:01:15;12.93;74.67
62476;DHT22;50739;45.670;11.936;2023-03-14T01:06:20;12.78;75.43
62476;DHT22;50739;45.670;11.936;2023-03-14T01:11:24;12.81;75.81
62476;DHT22;50739;45.670;11.936;2023-03-14T01:16:27;12.77;76.70
62476;DHT22;50739;45.670;11.936;2023-03-14T01:21:33;12.79;77.31
62476;DHT22;50739;45.670;11.936;2023-03-14T01:26:35;12.92;76.90
62476;DHT22;50739;45.670;11.936;2023-03-14T01:31:37;12.82;77.18
62476;DHT22;50739;45.670;11.936;2023-03-14T01:36:40;12.78;77.21
62476;DHT22;50739;45.670;11.936;2023-03-14T01:41:42;12.64;77.48
62476;DHT22;50739;45.670;11.936;2023-03-14T01:46:45;12.58;77.71
62476;DHT22;50739;45.670;11.936;2023-03-14T01:51:52;12.60;77.91
62476;DHT22;50739;45.670;11.936;2023-03-14T01:56:57;12.54;78.37
62476;DHT22;50739;45.670;11.936;2023-03-14T02:02:02;12.47;78.74
62476;DHT22;50739;45.670;11.936;2023-03-14T02:07:12;12.41;79.58
62476;DHT22;50739;45.670;11.936;2023-03-14T02:12:17;12.45;79.54
62476;DHT22;50739;45.670;11.936;2023-03-14T02:17:20;12.43;80.01
62476;DHT22;50739;45.670;11.936;2023-03-14T02:22:25;12.50;79.84
62476;DHT22;50739;45.670;11.936;2023-03-14T02:27:28;12.50;79.10
62476;DHT22;50739;45.670;11.936;2023-03-14T02:32:32;12.48;79.78
62476;DHT22;50739;45.670;11.936;2023-03-14T02:37:38;12.62;79.25
62476;DHT22;50739;45.670;11.936;2023-03-14T02:42:43;12.45;80.49
62476;DHT22;50739;45.670;11.936;2023-03-14T02:47:48;12.52;80.03
62476;DHT22;50739;45.670;11.936;2023-03-14T02:52:50;12.55;80.12
62476;DHT22;50739;45.670;11.936;2023-03-14T02:57:54;12.52;80.28
62476;DHT22;50739;45.670;11.936;2023-03-14T03:02:55;12.37;80.98
62476;DHT22;50739;45.670;11.936;2023-03-14T03:07:57;12.36;80.70
62476;DHT22;50739;45.670;11.936;2023-03-14T03:13:01;12.50;79.70
62476;DHT22;50739;45.670;11.936;2023-03-14T03:18:03;12.31;80.46
62476;DHT22;50739;45.670;11.936;2023-03-14T03:23:05;12.38;78.67
62476;DHT22;50739;45.670;11.936;2023-03-14T03:28:08;12.38;78.43
62476;DHT22;50739;45.670;11.936;2023-03-14T03:33:11;12.47;77.37
62476;DHT22;50739;45.670;11.936;2023-03-14T03:38:13;12.44;76.96
62476;DHT22;50739;45.670;11.936;2023-03-14T03:43:17;12.55;76.35
62476;DHT22;50739;45.670;11.936;2023-03-14T03:48:19;12.44;76.72
62476;DHT22;50739;45.670;11.936;2023-03-14T03:53:20;12.51;76.49
62476;DHT22;50739;45.670;11.936;2023-03-14T03:58:24;12.27;77.63
62476;DHT22;50739;45.670;11.936;2023-03-14T04:03:25;12.23;77.60
62476;DHT22;50739;45.670;11.936;2023-03-14T04:08:28;12.36;77.03
62476;DHT22;50739;45.670;11.936;2023-03-14T04:13:32;12.54;75.93
62476;DHT22;50739;45.670;11.936;2023-03-14T04:18:34;12.30;76.75
62476;DHT22;50739;45.670;11.936;2023-03-14T04:23:36;12.14;77.22
62476;DHT22;50739;45.670;11.936;2023-03-14T04:28:39;12.20;77.17
62476;DHT22;50739;45.670;11.936;2023-03-14T04:33:41;12.23;77.50
62476;DHT22;50739;45.670;11.936;2023-03-14T04:38:43;12.29;77.42
62476;DHT22;50739;45.670;11.936;2023-03-14T04:43:46;12.24;78.03
62476;DHT22;50739;45.670;11.936;2023-03-14T04:48:48;12.17;78.44
62476;DHT22;50739;45.670;11.936;2023-03-14T04:53:50;12.10;78.82
62476;DHT22;50739;45.670;11.936;2023-03-14T04:58:53;12.20;78.52
62476;DHT22;50739;45.670;11.936;2023-03-14T05:03:55;12.33;78.31
62476;DHT22;50739;45.670;11.936;2023-03-14T05:08:57;12.16;79.28
62476;DHT22;50739;45.670;11.936;2023-03-14T05:14:01;12.24;78.79
62476;DHT22;50739;45.670;11.936;2023-03-14T05:19:02;12.30;78.77
62476;DHT22;50739;45.670;11.936;2023-03-14T05:24:05;12.33;79.04
62476;DHT22;50739;45.670;11.936;2023-03-14T05:29:08;12.43;78.63
62476;DHT22;50739;45.670;11.936;2023-03-14T05:34:10;12.26;79.85
62476;DHT22;50739;45.670;11.936;2023-03-14T05:39:12;12.16;80.30
62476;DHT22;50739;45.670;11.936;2023-03-14T05:44:15;12.07;80.79
62476;DHT22;50739;45.670;11.936;2023-03-14T05:49:17;12.27;80.01
62476;DHT22;50739;45.670;11.936;2023-03-14T05:54:19;12.43;79.64
62476;DHT22;50739;45.670;11.936;2023-03-14T05:59:22;12.34;78.93
62476;DHT22;50739;45.670;11.936;2023-03-14T06:04:24;12.45;78.00
62476;DHT22;50739;45.670;11.936;2023-03-14T06:09:26;12.30;78.96
62476;DHT22;50739;45.670;11.936;2023-03-14T06:14:29;12.16;80.00
62476;DHT22;50739;45.670;11.936;2023-03-14T06:19:31;12.23;80.46
62476;DHT22;50739;45.670;11.936;2023-03-14T06:24:33;12.17;81.47
62476;DHT22;50739;45.670;11.936;2023-03-14T06:29:37;12.14;81.90
62476;DHT22;50739;45.670;11.936;2023-03-14T06:34:39;12.19;82.04
62476;DHT22;50739;45.670;11.936;2023-03-14T06:39:41;12.03;83.32
62476;DHT22;50739;45.670;11.936;2023-03-14T06:44:45;11.92;85.07
62476;DHT22;50739;45.670;11.936;2023-03-14T06:49:47;12.00;84.67
62476;DHT22;50739;45.670;11.936;2023-03-14T06:54:49;11.99;85.94
62476;DHT22;50739;45.670;11.936;2023-03-14T06:59:52;11.87;86.81
62476;DHT22;50739;45.670;11.936;2023-03-14T07:04:54;11.99;86.43
62476;DHT22;50739;45.670;11.936;2023-03-14T07:09:56;11.81;88.65
62476;DHT22;50739;45.670;11.936;2023-03-14T07:14:59;11.95;87.93
62476;DHT22;50739;45.670;11.936;2023-03-14T07:20:01;11.93;88.06
62476;DHT22;50739;45.670;11.936;2023-03-14T07:25:05;12.05;87.90
62476;DHT22;50739;45.670;11.936;2023-03-14T07:30:10;11.92;88.59
62476;DHT22;50739;45.670;11.936;2023-03-14T07:35:12;11.95;89.30
62476;DHT22;50739;45.670;11.936;2023-03-14T07:40:14;12.10;88.65
62476;DHT22;50739;45.670;11.936;2023-03-14T07:45:17;11.96;89.29
62476;DHT22;50739;45.670;11.936;2023-03-14T07:50:19;11.96;90.26
62476;DHT22;50739;45.670;11.936;2023-03-14T07:55:21;11.99;90.58
62476;DHT22;50739;45.670;11.936;2023-03-14T08:00:25;12.03;90.76
62476;DHT22;50739;45.670;11.936;2023-03-14T08:05:27;12.17;89.81
62476;DHT22;50739;45.670;11.936;2023-03-14T08:10:28;12.17;90.01
62476;DHT22;50739;45.670;11.936;2023-03-14T08:15:32;12.24;89.79
62476;DHT22;50739;45.670;11.936;2023-03-14T08:20:35;12.31;90.16
62476;DHT22;50739;45.670;11.936;2023-03-14T08:25:37;12.29;90.96
62476;DHT22;50739;45.670;11.936;2023-03-14T08:30:41;12.30;91.05
62476;DHT22;50739;45.670;11.936;2023-03-14T08:35:43;12.31;91.36
62476;DHT22;50739;45.670;11.936;2023-03-14T08:40:44;12.29;91.52
62476;DHT22;50739;45.670;11.936;2023-03-14T08:45:48;12.41;91.03
62476;DHT22;50739;45.670;11.936;2023-03-14T08:50:50;12.30;91.65
62476;DHT22;50739;45.670;11.936;2023-03-14T08:55:53;12.36;91.35
62476;DHT22;50739;45.670;11.936;2023-03-14T09:00:56;12.36;91.56
62476;DHT22;50739;45.670;11.936;2023-03-14T09:06:02;12.24;91.96
62476;DHT22;50739;45.670;11.936;2023-03-14T09:11:07;12.33;91.88
62476;DHT22;50739;45.670;11.936;2023-03-14T09:16:10;12.38;92.06
62476;DHT22;50739;45.670;11.936;2023-03-14T09:21:12;12.45;92.01
62476;DHT22;50739;45.670;11.936;2023-03-14T09:26:14;12.48;92.18
62476;DHT22;50739;45.670;11.936;2023-03-14T09:31:18;12.58;92.09
62476;DHT22;50739;45.670;11.936;2023-03-14T09:36:19;12.54;92.35
62476;DHT22;50739;45.670;11.936;2023-03-14T09:41:24;12.65;92.17
62476;DHT22;50739;45.670;11.936;2023-03-14T09:46:29;12.55;92.10
62476;DHT22;50739;45.670;11.936;2023-03-14T09:51:31;12.61;92.15
62476;DHT22;50739;45.670;11.936;2023-03-14T09:56:34;12.71;92.22
62476;DHT22;50739;45.670;11.936;2023-03-14T10:01:37;12.68;92.61
62476;DHT22;50739;45.670;11.936;2023-03-14T10:06:39;12.74;92.79
62476;DHT22;50739;45.670;11.936;2023-03-14T10:11:41;12.82;91.95
62476;DHT22;50739;45.670;11.936;2023-03-14T10:16:45;12.78;92.75
62476;DHT22;50739;45.670;11.936;2023-03-14T10:21:51;12.85;91.33
62476;DHT22;50739;45.670;11.936;2023-03-14T10:26:54;12.81;92.30
62476;DHT22;50739;45.670;11.936;2023-03-14T10:32:01;12.88;92.45
62476;DHT22;50739;45.670;11.936;2023-03-14T10:37:06;12.92;92.70
62476;DHT22;50739;45.670;11.936;2023-03-14T10:42:16;13.03;91.91
62476;DHT22;50739;45.670;11.936;2023-03-14T10:47:23;13.02;92.25
62476;DHT22;50739;45.670;11.936;2023-03-14T10:52:27;13.09;92.95
62476;DHT22;50739;45.670;11.936;2023-03-14T10:57:29;13.09;92.55
62476;DHT22;50739;45.670;11.936;2023-03-14T11:02:43;13.02;92.52
62476;DHT22;50739;45.670;11.936;2023-03-14T11:07:47;12.98;92.70
62476;DHT22;50739;45.670;11.936;2023-03-14T11:13:00;12.98;91.97
62476;DHT22;50739;45.670;11.936;2023-03-14T11:18:49;12.99;92.22
62476;DHT22;50739;45.670;11.936;2023-03-14T11:24:00;12.96;92.22
62476;DHT22;50739;45.670;11.936;2023-03-14T11:29:16;12.95;91.88
62476;DHT22;50739;45.670;11.936;2023-03-14T11:34:27;12.96;90.75
62476;DHT22;50739;45.670;11.936;2023-03-14T11:39:36;12.88;92.13
62476;DHT22;50739;45.670;11.936;2023-03-14T11:44:40;12.88;93.03
62476;DHT22;50739;45.670;11.936;2023-03-14T11:49:47;12.88;92.04
62476;DHT22;50739;45.670;11.936;2023-03-14T11:54:52;12.93;91.20
62476;DHT22;50739;45.670;11.936;2023-03-14T11:59:59;12.95;91.02
62476;DHT22;50739;45.670;11.936;2023-03-14T12:05:26;12.89;90.42
62476;DHT22;50739;45.670;11.936;2023-03-14T12:10:29;12.91;90.28
62476;DHT22;50739;45.670;11.936;2023-03-14T12:15:36;12.84;91.21
62476;DHT22;50739;45.670;11.936;2023-03-14T12:20:51;12.82;91.66
62476;DHT22;50739;45.670;11.936;2023-03-14T12:26:21;12.91;91.22
62476;DHT22;50739;45.670;11.936;2023-03-14T12:31:43;12.98;90.75
62476;DHT22;50739;45.670;11.936;2023-03-14T12:37:18;12.99;90.85
62476;DHT22;50739;45.670;11.936;2023-03-14T12:42:35;13.09;90.06
62476;DHT22;50739;45.670;11.936;2023-03-14T12:47:52;13.13;89.90
62476;DHT22;50739;45.670;11.936;2023-03-14T12:58:32;13.20;89.38
62476;DHT22;50739;45.670;11.936;2023-03-14T13:03:42;13.33;88.69
62476;DHT22;50739;45.670;11.936;2023-03-14T13:08:47;13.33;88.13
62476;DHT22;50739;45.670;11.936;2023-03-14T13:13:57;13.36;88.43
62476;DHT22;50739;45.670;11.936;2023-03-14T13:19:02;13.32;89.56
62476;DHT22;50739;45.670;11.936;2023-03-14T13:24:20;13.48;86.83
62476;DHT22;50739;45.670;11.936;2023-03-14T13:29:23;13.58;86.50
62476;DHT22;50739;45.670;11.936;2023-03-14T13:34:26;13.74;87.97
62476;DHT22;50739;45.670;11.936;2023-03-14T13:39:31;13.97;87.18
62476;DHT22;50739;45.670;11.936;2023-03-14T13:44:35;13.99;86.85
62476;DHT22;50739;45.670;11.936;2023-03-14T13:49:38;13.88;87.06
62476;DHT22;50739;45.670;11.936;2023-03-14T13:54:41;13.75;87.22
62476;DHT22;50739;45.670;11.936;2023-03-14T13:59:43;13.65;86.52
62476;DHT22;50739;45.670;11.936;2023-03-14T14:04:46;13.70;85.87
62476;DHT22;50739;45.670;11.936;2023-03-14T14:09:52;13.68;85.45
62476;DHT22;50739;45.670;11.936;2023-03-14T14:14:57;13.81;85.88
62476;DHT22;50739;45.670;11.936;2023-03-14T14:20:01;13.88;86.32
62476;DHT22;50739;45.670;11.936;2023-03-14T14:25:12;14.01;85.62
62476;DHT22;50739;45.670;11.936;2023-03-14T14:30:30;14.37;85.13
62476;DHT22;50739;45.670;11.936;2023-03-14T14:35:33;14.95;84.37
62476;DHT22;50739;45.670;11.936;2023-03-14T14:40:43;15.71;80.89
62476;DHT22;50739;45.670;11.936;2023-03-14T14:45:48;16.25;78.11
62476;DHT22;50739;45.670;11.936;2023-03-14T14:50:56;16.21;77.38
62476;DHT22;50739;45.670;11.936;2023-03-14T14:56:06;16.32;78.35
62476;DHT22;50739;45.670;11.936;2023-03-14T15:01:12;16.74;76.11
62476;DHT22;50739;45.670;11.936;2023-03-14T15:06:16;17.14;73.11
62476;DHT22;50739;45.670;11.936;2023-03-14T15:11:22;17.10;73.66
62476;DHT22;50739;45.670;11.936;2023-03-14T15:16:28;16.59;75.57
62476;DHT22;50739;45.670;11.936;2023-03-14T15:21:31;15.83;77.49
62476;DHT22;50739;45.670;11.936;2023-03-14T15:26:34;15.51;77.82
62476;DHT22;50739;45.670;11.936;2023-03-14T15:31:36;15.21;80.34
62476;DHT22;50739;45.670;11.936;2023-03-14T15:36:38;14.92;81.28
62476;DHT22;50739;45.670;11.936;2023-03-14T15:41:42;14.78;81.50
62476;DHT22;50739;45.670;11.936;2023-03-14T15:46:43;14.68;82.08
62476;DHT22;50739;45.670;11.936;2023-03-14T15:51:45;14.59;83.42
62476;DHT22;50739;45.670;11.936;2023-03-14T15:56:48;14.51;83.21
62476;DHT22;50739;45.670;11.936;2023-03-14T16:01:52;14.40;83.86
62476;DHT22;50739;45.670;11.936;2023-03-14T16:06:53;14.33;84.42
62476;DHT22;50739;45.670;11.936;2023-03-14T16:11:57;14.61;82.89
62476;DHT22;50739;45.670;11.936;2023-03-14T16:16:58;14.53;83.13
62476;DHT22;50739;45.670;11.936;2023-03-14T16:22:00;14.96;81.26
62476;DHT22;50739;45.670;11.936;2023-03-14T16:27:04;14.89;80.52
62476;DHT22;50739;45.670;11.936;2023-03-14T16:32:06;14.61;82.18
62476;DHT22;50739;45.670;11.936;2023-03-14T16:37:08;14.40;83.52
62476;DHT22;50739;45.670;11.936;2023-03-14T16:42:11;14.27;84.12
62476;DHT22;50739;45.670;11.936;2023-03-14T16:47:13;14.08;85.27
62476;DHT22;50739;45.670;11.936;2023-03-14T16:52:15;14.06;84.96
62476;DHT22;50739;45.670;11.936;2023-03-14T16:57:18;13.94;85.62
62476;DHT22;50739;45.670;11.936;2023-03-14T17:02:20;13.95;85.55
62476;DHT22;50739;45.670;11.936;2023-03-14T17:07:22;13.71;86.89
62476;DHT22;50739;45.670;11.936;2023-03-14T17:12:25;13.72;86.86
62476;DHT22;50739;45.670;11.936;2023-03-14T17:17:27;13.82;86.43
62476;DHT22;50739;45.670;11.936;2023-03-14T17:22:29;13.77;86.61
62476;DHT22;50739;45.670;11.936;2023-03-14T17:27:32;13.79;86.67
62476;DHT22;50739;45.670;11.936;2023-03-14T17:32:35;13.72;87.32
62476;DHT22;50739;45.670;11.936;2023-03-14T17:37:37;13.77;86.85
62476;DHT22;50739;45.670;11.936;2023-03-14T17:42:41;13.74;87.00
62476;DHT22;50739;45.670;11.936;2023-03-14T17:47:43;13.72;87.17
62476;DHT22;50739;45.670;11.936;2023-03-14T17:52:44;13.81;87.14
62476;DHT22;50739;45.670;11.936;2023-03-14T17:57:48;13.71;87.36
62476;DHT22;50739;45.670;11.936;2023-03-14T18:02:50;13.74;87.37
62476;DHT22;50739;45.670;11.936;2023-03-14T18:07:52;13.71;87.52
62476;DHT22;50739;45.670;11.936;2023-03-14T18:12:55;13.68;87.83
62476;DHT22;50739;45.670;11.936;2023-03-14T18:17:57;13.65;88.10
62476;DHT22;50739;45.670;11.936;2023-03-14T18:22:59;13.65;88.08
62476;DHT22;50739;45.670;11.936;2023-03-14T18:28:02;13.61;88.24
62476;DHT22;50739;45.670;11.936;2023-03-14T18:33:04;13.72;87.84
62476;DHT22;50739;45.670;11.936;2023-03-14T18:38:06;13.61;88.10
62476;DHT22;50739;45.670;11.936;2023-03-14T18:43:09;13.60;88.67
62476;DHT22;50739;45.670;11.936;2023-03-14T18:48:11;13.57;88.68
62476;DHT22;50739;45.670;11.936;2023-03-14T18:53:13;13.60;88.34
62476;DHT22;50739;45.670;11.936;2023-03-14T18:58:16;13.50;88.69
62476;DHT22;50739;45.670;11.936;2023-03-14T19:03:23;13.42;88.47
62476;DHT22;50739;45.670;11.936;2023-03-14T19:08:28;13.43;87.69
62476;DHT22;50739;45.670;11.936;2023-03-14T19:13:32;13.40;87.56
62476;DHT22;50739;45.670;11.936;2023-03-14T19:18:34;13.53;86.85
62476;DHT22;50739;45.670;11.936;2023-03-14T19:23:38;13.46;87.00
62476;DHT22;50739;45.670;11.936;2023-03-14T19:28:42;13.30;87.93
62476;DHT22;50739;45.670;11.936;2023-03-14T19:33:44;13.27;88.05
62476;DHT22;50739;45.670;11.936;2023-03-14T19:38:46;13.16;88.38
62476;DHT22;50739;45.670;11.936;2023-03-14T19:43:51;13.07;88.68
62476;DHT22;50739;45.670;11.936;2023-03-14T19:48:53;13.10;88.43
62476;DHT22;50739;45.670;11.936;2023-03-14T19:53:54;13.15;88.37
62476;DHT22;50739;45.670;11.936;2023-03-14T19:59:00;13.09;88.29
62476;DHT22;50739;45.670;11.936;2023-03-14T20:04:03;13.12;88.15
62476;DHT22;50739;45.670;11.936;2023-03-14T20:09:05;13.10;87.89
62476;DHT22;50739;45.670;11.936;2023-03-14T20:14:09;13.07;87.81
62476;DHT22;50739;45.670;11.936;2023-03-14T20:19:12;13.02;88.19
62476;DHT22;50739;45.670;11.936;2023-03-14T20:24:14;13.19;87.41
62476;DHT22;50739;45.670;11.936;2023-03-14T20:29:18;13.10;87.88
62476;DHT22;50739;45.670;11.936;2023-03-14T20:34:20;13.09;87.83
62476;DHT22;50739;45.670;11.936;2023-03-14T20:39:21;13.03;88.01
62476;DHT22;50739;45.670;11.936;2023-03-14T20:44:25;12.95;88.12
62476;DHT22;50739;45.670;11.936;2023-03-14T20:49:27;12.75;88.88
62476;DHT22;50739;45.670;11.936;2023-03-14T20:54:29;12.69;89.05
62476;DHT22;50739;45.670;11.936;2023-03-14T20:59:32;12.67;88.90
62476;DHT22;50739;45.670;11.936;2023-03-14T21:04:34;12.61;89.15
62476;DHT22;50739;45.670;11.936;2023-03-14T21:09:36;12.60;89.64
62476;DHT22;50739;45.670;11.936;2023-03-14T21:14:39;12.60;89.50
62476;DHT22;50739;45.670;11.936;2023-03-14T21:19:41;12.74;88.70
62476;DHT22;50739;45.670;11.936;2023-03-14T21:24:45;12.84;87.96
62476;DHT22;50739;45.670;11.936;2023-03-14T21:29:48;12.69;87.96
62476;DHT22;50739;45.670;11.936;2023-03-14T21:34:50;12.74;87.81
62476;DHT22;50739;45.670;11.936;2023-03-14T21:39:52;12.71;87.65
62476;DHT22;50739;45.670;11.936;2023-03-14T21:44:56;12.69;87.98
62476;DHT22;50739;45.670;11.936;2023-03-14T21:49:58;12.77;87.05
62476;DHT22;50739;45.670;11.936;2023-03-14T21:55:01;12.75;87.19
62476;DHT22;50739;45.670;11.936;2023-03-14T22:00:06;12.74;87.23
62476;DHT22;50739;45.670;11.936;2023-03-14T22:05:13;12.85;86.64
62476;DHT22;50739;45.670;11.936;2023-03-14T22:10:15;12.75;86.67
62476;DHT22;50739;45.670;11.936;2023-03-14T22:15:20;12.68;86.95
62476;DHT22;50739;45.670;11.936;2023-03-14T22:20:22;12.72;86.76
62476;DHT22;50739;45.670;11.936;2023-03-14T22:25:24;12.65;86.91
62476;DHT22;50739;45.670;11.936;2023-03-14T22:30:28;12.68;86.72
62476;DHT22;50739;45.670;11.936;2023-03-14T22:35:30;12.69;86.57
62476;DHT22;50739;45.670;11.936;2023-03-14T22:40:31;12.61;86.96
62476;DHT22;50739;45.670;11.936;2023-03-14T22:45:35;12.54;86.83
62476;DHT22;50739;45.670;11.936;2023-03-14T22:50:37;12.50;87.35
62476;DHT22;50739;45.670;11.936;2023-03-14T22:55:40;12.48;87.25
62476;DHT22;50739;45.670;11.936;2023-03-14T23:00:43;12.40;87.65
62476;DHT22;50739;45.670;11.936;2023-03-14T23:05:45;12.20;88.16
62476;DHT22;50739;45.670;11.936;2023-03-14T23:10:47;12.23;88.03
62476;DHT22;50739;45.670;11.936;2023-03-14T23:15:50;12.10;88.51
62476;DHT22;50739;45.670;11.936;2023-03-14T23:20:53;12.06;88.75
62476;DHT22;50739;45.670;11.936;2023-03-14T23:26:07;12.12;88.89
62476;DHT22;50739;45.670;11.936;2023-03-14T23:31:11;12.09;88.90
62476;DHT22;50739;45.670;11.936;2023-03-14T23:36:15;12.19;88.18
62476;DHT22;50739;45.670;11.936;2023-03-14T23:41:17;12.14;88.40
62476;DHT22;50739;45.670;11.936;2023-03-14T23:46:21;12.03;89.30
62476;DHT22;50739;45.670;11.936;2023-03-14T23:51:22;11.83;89.67
62476;DHT22;50739;45.670;11.936;2023-03-14T23:56:24;11.68;90.18
